sensor_id;sensor_type;location;lat;lon;timestamp;P1;durP1;ratioP1;P2;durP2;ratioP2
8819;SDS011;4446;50.876;4.736;2023-03-14T00:00:04;4.32;;;1.50;;
8819;SDS011;4446;50.876;4.736;2023-03-14T00:02:33;5.50;;;1.40;;
8819;SDS011;4446;50.876;4.736;2023-03-14T00:05:00;2.50;;;1.10;;
8819;SDS011;4446;50.876;4.736;2023-03-14T00:07:31;5.75;;;1.50;;
8819;SDS011;4446;50.876;4.736;2023-03-14T00:10:01;3.78;;;1.63;;
8819;SDS011;4446;50.876;4.736;2023-03-14T00:12:30;3.25;;;1.40;;
8819;SDS011;4446;50.876;4.736;2023-03-14T00:14:57;4.40;;;1.42;;
8819;SDS011;4446;50.876;4.736;2023-03-14T00:17:25;5.05;;;1.60;;
8819;SDS011;4446;50.876;4.736;2023-03-14T00:19:52;6.80;;;1.95;;
8819;SDS011;4446;50.876;4.736;2023-03-14T00:22:19;6.65;;;1.55;;
8819;SDS011;4446;50.876;4.736;2023-03-14T00:24:46;5.32;;;1.75;;
8819;SDS011;4446;50.876;4.736;2023-03-14T00:27:15;6.78;;;1.70;;
8819;SDS011;4446;50.876;4.736;2023-03-14T00:29:42;4.93;;;2.25;;
8819;SDS011;4446;50.876;4.736;2023-03-14T00:32:10;6.25;;;1.80;;
8819;SDS011;4446;50.876;4.736;2023-03-14T00:34:36;6.00;;;1.92;;
8819;SDS011;4446;50.876;4.736;2023-03-14T00:37:03;5.07;;;1.88;;
8819;SDS011;4446;50.876;4.736;2023-03-14T00:39:30;6.13;;;2.20;;
8819;SDS011;4446;50.876;4.736;2023-03-14T00:41:57;6.07;;;1.80;;
8819;SDS011;4446;50.876;4.736;2023-03-14T00:44:25;6.65;;;2.35;;
8819;SDS011;4446;50.876;4.736;2023-03-14T00:46:52;5.05;;;1.80;;
8819;SDS011;4446;50.876;4.736;2023-03-14T00:49:19;7.32;;;2.05;;
8819;SDS011;4446;50.876;4.736;2023-03-14T00:51:46;6.68;;;1.80;;
8819;SDS011;4446;50.876;4.736;2023-03-14T00:54:13;4.82;;;1.80;;
8819;SDS011;4446;50.876;4.736;2023-03-14T00:56:40;6.82;;;1.80;;
8819;SDS011;4446;50.876;4.736;2023-03-14T00:59:07;4.15;;;1.77;;
8819;SDS011;4446;50.876;4.736;2023-03-14T01:01:35;4.43;;;1.73;;
8819;SDS011;4446;50.876;4.736;2023-03-14T01:04:02;7.47;;;2.03;;
8819;SDS011;4446;50.876;4.736;2023-03-14T01:06:29;4.35;;;1.60;;
8819;SDS011;4446;50.876;4.736;2023-03-14T01:08:56;8.10;;;2.00;;
8819;SDS011;4446;50.876;4.736;2023-03-14T01:11:25;6.72;;;1.77;;
8819;SDS011;4446;50.876;4.736;2023-03-14T01:13:53;6.75;;;1.75;;
8819;SDS011;4446;50.876;4.736;2023-03-14T01:16:21;6.95;;;1.95;;
8819;SDS011;4446;50.876;4.736;2023-03-14T01:18:50;10.77;;;2.00;;
8819;SDS011;4446;50.876;4.736;2023-03-14T01:21:18;6.60;;;1.92;;
8819;SDS011;4446;50.876;4.736;2023-03-14T01:23:46;5.75;;;1.90;;
8819;SDS011;4446;50.876;4.736;2023-03-14T01:26:14;5.07;;;1.55;;
8819;SDS011;4446;50.876;4.736;2023-03-14T01:28:44;5.30;;;2.10;;
8819;SDS011;4446;50.876;4.736;2023-03-14T01:31:11;7.90;;;1.98;;
8819;SDS011;4446;50.876;4.736;2023-03-14T01:33:39;6.60;;;1.70;;
8819;SDS011;4446;50.876;4.736;2023-03-14T01:36:08;8.00;;;1.95;;
8819;SDS011;4446;50.876;4.736;2023-03-14T01:38:36;8.35;;;2.10;;
8819;SDS011;4446;50.876;4.736;2023-03-14T01:41:05;5.47;;;1.80;;
8819;SDS011;4446;50.876;4.736;2023-03-14T01:43:33;8.85;;;1.83;;
8819;SDS011;4446;50.876;4.736;2023-03-14T01:46:16;7.30;;;1.83;;
8819;SDS011;4446;50.876;4.736;2023-03-14T01:48:58;5.32;;;1.90;;
8819;SDS011;4446;50.876;4.736;2023-03-14T01:51:32;7.78;;;1.98;;
8819;SDS011;4446;50.876;4.736;2023-03-14T01:54:06;7.95;;;1.90;;
8819;SDS011;4446;50.876;4.736;2023-03-14T01:56:36;6.35;;;2.03;;
8819;SDS011;4446;50.876;4.736;2023-03-14T01:59:05;8.80;;;2.42;;
8819;SDS011;4446;50.876;4.736;2023-03-14T02:01:34;7.85;;;1.88;;
8819;SDS011;4446;50.876;4.736;2023-03-14T02:04:03;4.47;;;2.10;;
8819;SDS011;4446;50.876;4.736;2023-03-14T02:06:36;6.88;;;1.63;;
8819;SDS011;4446;50.876;4.736;2023-03-14T02:09:08;6.15;;;1.80;;
8819;SDS011;4446;50.876;4.736;2023-03-14T02:11:35;5.75;;;1.75;;
8819;SDS011;4446;50.876;4.736;2023-03-14T02:14:02;6.72;;;1.75;;
8819;SDS011;4446;50.876;4.736;2023-03-14T02:16:30;6.00;;;1.70;;
8819;SDS011;4446;50.876;4.736;2023-03-14T02:18:57;5.00;;;1.55;;
8819;SDS011;4446;50.876;4.736;2023-03-14T02:21:26;4.05;;;2.03;;
8819;SDS011;4446;50.876;4.736;2023-03-14T02:24:07;4.28;;;1.63;;
8819;SDS011;4446;50.876;4.736;2023-03-14T02:26:38;4.75;;;1.63;;
8819;SDS011;4446;50.876;4.736;2023-03-14T02:29:10;7.57;;;1.50;;
8819;SDS011;4446;50.876;4.736;2023-03-14T02:31:37;3.45;;;1.30;;
8819;SDS011;4446;50.876;4.736;2023-03-14T02:34:05;5.00;;;1.40;;
8819;SDS011;4446;50.876;4.736;2023-03-14T02:36:32;4.38;;;1.50;;
8819;SDS011;4446;50.876;4.736;2023-03-14T02:39:01;3.78;;;1.20;;
8819;SDS011;4446;50.876;4.736;2023-03-14T02:41:34;5.60;;;1.63;;
8819;SDS011;4446;50.876;4.736;2023-03-14T02:44:01;4.93;;;1.40;;
8819;SDS011;4446;50.876;4.736;2023-03-14T02:46:29;3.05;;;1.00;;
8819;SDS011;4446;50.876;4.736;2023-03-14T02:48:57;5.07;;;1.38;;
8819;SDS011;4446;50.876;4.736;2023-03-14T02:51:26;4.80;;;1.80;;
8819;SDS011;4446;50.876;4.736;2023-03-14T02:53:54;3.70;;;1.48;;
8819;SDS011;4446;50.876;4.736;2023-03-14T02:56:22;7.03;;;1.50;;
8819;SDS011;4446;50.876;4.736;2023-03-14T02:58:49;6.28;;;1.80;;
8819;SDS011;4446;50.876;4.736;2023-03-14T03:01:16;4.47;;;1.40;;
8819;SDS011;4446;50.876;4.736;2023-03-14T03:03:44;2.88;;;1.30;;
8819;SDS011;4446;50.876;4.736;2023-03-14T03:06:11;2.90;;;1.40;;
8819;SDS011;4446;50.876;4.736;2023-03-14T03:08:38;3.95;;;1.30;;
8819;SDS011;4446;50.876;4.736;2023-03-14T03:11:05;2.53;;;1.35;;
8819;SDS011;4446;50.876;4.736;2023-03-14T03:13:32;6.18;;;1.40;;
8819;SDS011;4446;50.876;4.736;2023-03-14T03:15:59;5.47;;;1.60;;
8819;SDS011;4446;50.876;4.736;2023-03-14T03:18:26;5.25;;;1.80;;
8819;SDS011;4446;50.876;4.736;2023-03-14T03:20:54;6.18;;;1.60;;
8819;SDS011;4446;50.876;4.736;2023-03-14T03:23:21;7.15;;;1.77;;
8819;SDS011;4446;50.876;4.736;2023-03-14T03:25:48;7.68;;;2.22;;
8819;SDS011;4446;50.876;4.736;2023-03-14T03:28:16;5.22;;;2.10;;
8819;SDS011;4446;50.876;4.736;2023-03-14T03:30:43;7.25;;;1.90;;
8819;SDS011;4446;50.876;4.736;2023-03-14T03:33:10;5.95;;;2.33;;
8819;SDS011;4446;50.876;4.736;2023-03-14T03:35:41;8.73;;;2.58;;
8819;SDS011;4446;50.876;4.736;2023-03-14T03:38:11;7.90;;;2.55;;
8819;SDS011;4446;50.876;4.736;2023-03-14T03:40:38;6.15;;;2.20;;
8819;SDS011;4446;50.876;4.736;2023-03-14T03:43:05;5.85;;;2.60;;
8819;SDS011;4446;50.876;4.736;2023-03-14T03:45:32;11.85;;;3.00;;
8819;SDS011;4446;50.876;4.736;2023-03-14T03:47:59;5.57;;;2.78;;
8819;SDS011;4446;50.876;4.736;2023-03-14T03:50:26;6.82;;;2.65;;
8819;SDS011;4446;50.876;4.736;2023-03-14T03:52:53;6.97;;;2.60;;
8819;SDS011;4446;50.876;4.736;2023-03-14T03:55:21;9.40;;;2.80;;
8819;SDS011;4446;50.876;4.736;2023-03-14T03:57:48;7.85;;;2.42;;
8819;SDS011;4446;50.876;4.736;2023-03-14T04:00:15;9.65;;;2.95;;
8819;SDS011;4446;50.876;4.736;2023-03-14T04:02:42;9.18;;;2.50;;
8819;SDS011;4446;50.876;4.736;2023-03-14T04:05:09;7.95;;;2.90;;
8819;SDS011;4446;50.876;4.736;2023-03-14T04:07:36;7.70;;;2.75;;
8819;SDS011;4446;50.876;4.736;2023-03-14T04:10:04;5.95;;;2.47;;
8819;SDS011;4446;50.876;4.736;2023-03-14T04:12:32;10.07;;;3.28;;
8819;SDS011;4446;50.876;4.736;2023-03-14T04:14:59;8.27;;;2.92;;
8819;SDS011;4446;50.876;4.736;2023-03-14T04:17:26;8.38;;;2.90;;
8819;SDS011;4446;50.876;4.736;2023-03-14T04:19:53;9.13;;;2.90;;
8819;SDS011;4446;50.876;4.736;2023-03-14T04:22:20;7.25;;;2.80;;
8819;SDS011;4446;50.876;4.736;2023-03-14T04:24:47;6.32;;;2.72;;
8819;SDS011;4446;50.876;4.736;2023-03-14T04:27:14;5.82;;;2.80;;
8819;SDS011;4446;50.876;4.736;2023-03-14T04:29:42;7.97;;;2.97;;
8819;SDS011;4446;50.876;4.736;2023-03-14T04:32:09;6.22;;;2.53;;
8819;SDS011;4446;50.876;4.736;2023-03-14T04:34:36;9.07;;;2.97;;
8819;SDS011;4446;50.876;4.736;2023-03-14T04:37:03;6.68;;;2.65;;
8819;SDS011;4446;50.876;4.736;2023-03-14T04:39:30;9.75;;;2.63;;
8819;SDS011;4446;50.876;4.736;2023-03-14T04:41:57;5.90;;;2.50;;
8819;SDS011;4446;50.876;4.736;2023-03-14T04:44:24;6.00;;;2.30;;
8819;SDS011;4446;50.876;4.736;2023-03-14T04:46:52;4.97;;;2.28;;
8819;SDS011;4446;50.876;4.736;2023-03-14T04:49:19;7.32;;;2.80;;
8819;SDS011;4446;50.876;4.736;2023-03-14T04:51:46;5.10;;;2.63;;
8819;SDS011;4446;50.876;4.736;2023-03-14T04:54:13;6.38;;;2.55;;
8819;SDS011;4446;50.876;4.736;2023-03-14T04:56:40;3.95;;;2.33;;
8819;SDS011;4446;50.876;4.736;2023-03-14T04:59:07;6.45;;;2.53;;
8819;SDS011;4446;50.876;4.736;2023-03-14T05:01:34;5.78;;;2.10;;
8819;SDS011;4446;50.876;4.736;2023-03-14T05:04:02;4.75;;;1.90;;
8819;SDS011;4446;50.876;4.736;2023-03-14T05:06:29;4.57;;;2.10;;
8819;SDS011;4446;50.876;4.736;2023-03-14T05:08:56;4.22;;;2.30;;
8819;SDS011;4446;50.876;4.736;2023-03-14T05:11:23;6.70;;;2.38;;
8819;SDS011;4446;50.876;4.736;2023-03-14T05:13:50;5.07;;;1.98;;
8819;SDS011;4446;50.876;4.736;2023-03-14T05:16:16;3.10;;;2.15;;
8819;SDS011;4446;50.876;4.736;2023-03-14T05:18:43;4.25;;;1.92;;
8819;SDS011;4446;50.876;4.736;2023-03-14T05:21:11;3.50;;;2.20;;
8819;SDS011;4446;50.876;4.736;2023-03-14T05:23:38;4.95;;;2.10;;
8819;SDS011;4446;50.876;4.736;2023-03-14T05:26:05;3.55;;;2.10;;
8819;SDS011;4446;50.876;4.736;2023-03-14T05:28:32;3.22;;;2.00;;
8819;SDS011;4446;50.876;4.736;2023-03-14T05:30:59;5.28;;;2.20;;
8819;SDS011;4446;50.876;4.736;2023-03-14T05:33:26;6.32;;;2.20;;
8819;SDS011;4446;50.876;4.736;2023-03-14T05:35:53;3.70;;;2.20;;
8819;SDS011;4446;50.876;4.736;2023-03-14T05:38:21;4.80;;;2.20;;
8819;SDS011;4446;50.876;4.736;2023-03-14T05:40:48;2.80;;;2.00;;
8819;SDS011;4446;50.876;4.736;2023-03-14T05:43:15;3.85;;;2.08;;
8819;SDS011;4446;50.876;4.736;2023-03-14T05:45:42;3.50;;;1.98;;
8819;SDS011;4446;50.876;4.736;2023-03-14T05:48:09;3.75;;;2.70;;
8819;SDS011;4446;50.876;4.736;2023-03-14T05:50:36;4.63;;;2.58;;
8819;SDS011;4446;50.876;4.736;2023-03-14T05:53:03;3.50;;;2.22;;
8819;SDS011;4446;50.876;4.736;2023-03-14T05:55:32;4.90;;;2.35;;
8819;SDS011;4446;50.876;4.736;2023-03-14T05:57:58;2.58;;;1.85;;
8819;SDS011;4446;50.876;4.736;2023-03-14T06:00:25;3.60;;;2.47;;
8819;SDS011;4446;50.876;4.736;2023-03-14T06:02:53;3.25;;;2.50;;
8819;SDS011;4446;50.876;4.736;2023-03-14T06:05:19;4.82;;;2.58;;
8819;SDS011;4446;50.876;4.736;2023-03-14T06:07:46;4.03;;;2.83;;
8819;SDS011;4446;50.876;4.736;2023-03-14T06:10:13;3.30;;;2.75;;
8819;SDS011;4446;50.876;4.736;2023-03-14T06:12:42;4.03;;;2.72;;
8819;SDS011;4446;50.876;4.736;2023-03-14T06:15:09;5.75;;;2.90;;
8819;SDS011;4446;50.876;4.736;2023-03-14T06:17:36;5.03;;;3.30;;
8819;SDS011;4446;50.876;4.736;2023-03-14T06:20:03;5.85;;;3.47;;
8819;SDS011;4446;50.876;4.736;2023-03-14T06:22:31;5.25;;;3.50;;
8819;SDS011;4446;50.876;4.736;2023-03-14T06:24:57;6.65;;;3.83;;
8819;SDS011;4446;50.876;4.736;2023-03-14T06:27:24;5.97;;;4.00;;
8819;SDS011;4446;50.876;4.736;2023-03-14T06:29:53;5.18;;;3.78;;
8819;SDS011;4446;50.876;4.736;2023-03-14T06:32:19;6.97;;;4.00;;
8819;SDS011;4446;50.876;4.736;2023-03-14T06:34:46;8.02;;;4.45;;
8819;SDS011;4446;50.876;4.736;2023-03-14T06:37:13;5.78;;;3.80;;
8819;SDS011;4446;50.876;4.736;2023-03-14T06:39:40;5.65;;;4.00;;
8819;SDS011;4446;50.876;4.736;2023-03-14T06:42:09;6.18;;;4.00;;
8819;SDS011;4446;50.876;4.736;2023-03-14T06:44:36;7.20;;;4.18;;
8819;SDS011;4446;50.876;4.736;2023-03-14T06:47:04;7.65;;;4.43;;
8819;SDS011;4446;50.876;4.736;2023-03-14T06:49:31;6.20;;;4.13;;
8819;SDS011;4446;50.876;4.736;2023-03-14T06:51:58;8.02;;;4.57;;
8819;SDS011;4446;50.876;4.736;2023-03-14T06:54:25;6.40;;;4.57;;
8819;SDS011;4446;50.876;4.736;2023-03-14T06:56:52;7.45;;;4.63;;
8819;SDS011;4446;50.876;4.736;2023-03-14T06:59:18;7.97;;;4.22;;
8819;SDS011;4446;50.876;4.736;2023-03-14T07:01:45;7.13;;;4.55;;
8819;SDS011;4446;50.876;4.736;2023-03-14T07:04:14;5.40;;;3.72;;
8819;SDS011;4446;50.876;4.736;2023-03-14T07:06:41;4.38;;;3.40;;
8819;SDS011;4446;50.876;4.736;2023-03-14T07:09:09;8.50;;;3.42;;
8819;SDS011;4446;50.876;4.736;2023-03-14T07:11:36;5.97;;;3.15;;
8819;SDS011;4446;50.876;4.736;2023-03-14T07:14:03;3.60;;;2.92;;
8819;SDS011;4446;50.876;4.736;2023-03-14T07:16:31;2.15;;;1.80;;
8819;SDS011;4446;50.876;4.736;2023-03-14T07:18:58;1.60;;;1.50;;
8819;SDS011;4446;50.876;4.736;2023-03-14T07:21:26;1.83;;;1.30;;
8819;SDS011;4446;50.876;4.736;2023-03-14T07:23:53;2.95;;;1.50;;
8819;SDS011;4446;50.876;4.736;2023-03-14T07:26:20;2.65;;;1.70;;
8819;SDS011;4446;50.876;4.736;2023-03-14T07:28:47;2.00;;;1.75;;
8819;SDS011;4446;50.876;4.736;2023-03-14T07:31:14;1.40;;;1.25;;
8819;SDS011;4446;50.876;4.736;2023-03-14T07:33:41;2.47;;;1.40;;
8819;SDS011;4446;50.876;4.736;2023-03-14T07:36:08;2.22;;;1.65;;
8819;SDS011;4446;50.876;4.736;2023-03-14T07:38:37;2.67;;;1.95;;
8819;SDS011;4446;50.876;4.736;2023-03-14T07:41:05;2.33;;;2.10;;
8819;SDS011;4446;50.876;4.736;2023-03-14T07:43:32;2.53;;;1.85;;
8819;SDS011;4446;50.876;4.736;2023-03-14T07:45:59;2.42;;;2.05;;
8819;SDS011;4446;50.876;4.736;2023-03-14T07:48:26;3.55;;;2.40;;
8819;SDS011;4446;50.876;4.736;2023-03-14T07:50:54;2.55;;;2.20;;
8819;SDS011;4446;50.876;4.736;2023-03-14T07:53:21;3.50;;;2.75;;
8819;SDS011;4446;50.876;4.736;2023-03-14T07:55:51;2.67;;;2.20;;
8819;SDS011;4446;50.876;4.736;2023-03-14T07:58:18;3.15;;;2.45;;
8819;SDS011;4446;50.876;4.736;2023-03-14T08:00:46;3.33;;;2.33;;
8819;SDS011;4446;50.876;4.736;2023-03-14T08:03:13;3.28;;;2.20;;
8819;SDS011;4446;50.876;4.736;2023-03-14T08:05:41;5.97;;;2.40;;
8819;SDS011;4446;50.876;4.736;2023-03-14T08:08:08;5.07;;;2.83;;
8819;SDS011;4446;50.876;4.736;2023-03-14T08:10:35;2.95;;;2.20;;
8819;SDS011;4446;50.876;4.736;2023-03-14T08:13:04;4.25;;;2.80;;
8819;SDS011;4446;50.876;4.736;2023-03-14T08:15:30;4.72;;;3.40;;
8819;SDS011;4446;50.876;4.736;2023-03-14T08:17:57;4.82;;;3.30;;
8819;SDS011;4446;50.876;4.736;2023-03-14T08:20:25;5.95;;;3.67;;
8819;SDS011;4446;50.876;4.736;2023-03-14T08:22:55;5.20;;;4.00;;
8819;SDS011;4446;50.876;4.736;2023-03-14T08:25:22;7.57;;;4.32;;
8819;SDS011;4446;50.876;4.736;2023-03-14T08:27:49;8.77;;;4.47;;
8819;SDS011;4446;50.876;4.736;2023-03-14T08:30:18;10.05;;;5.00;;
8819;SDS011;4446;50.876;4.736;2023-03-14T08:32:46;7.68;;;4.45;;
8819;SDS011;4446;50.876;4.736;2023-03-14T08:35:13;10.52;;;5.47;;
8819;SDS011;4446;50.876;4.736;2023-03-14T08:37:40;7.20;;;5.45;;
8819;SDS011;4446;50.876;4.736;2023-03-14T08:40:08;6.53;;;5.40;;
8819;SDS011;4446;50.876;4.736;2023-03-14T08:42:36;8.10;;;5.25;;
8819;SDS011;4446;50.876;4.736;2023-03-14T08:45:04;8.50;;;5.65;;
8819;SDS011;4446;50.876;4.736;2023-03-14T08:47:34;3.72;;;3.08;;
8819;SDS011;4446;50.876;4.736;2023-03-14T08:50:01;4.20;;;3.25;;
8819;SDS011;4446;50.876;4.736;2023-03-14T08:52:29;5.43;;;2.97;;
8819;SDS011;4446;50.876;4.736;2023-03-14T08:54:56;3.88;;;2.63;;
8819;SDS011;4446;50.876;4.736;2023-03-14T08:57:23;3.67;;;2.80;;
8819;SDS011;4446;50.876;4.736;2023-03-14T08:59:52;4.35;;;3.00;;
8819;SDS011;4446;50.876;4.736;2023-03-14T09:02:20;4.55;;;2.90;;
8819;SDS011;4446;50.876;4.736;2023-03-14T09:04:48;5.53;;;2.90;;
8819;SDS011;4446;50.876;4.736;2023-03-14T09:07:16;4.28;;;2.40;;
8819;SDS011;4446;50.876;4.736;2023-03-14T09:09:43;2.80;;;2.45;;
8819;SDS011;4446;50.876;4.736;2023-03-14T09:12:10;3.53;;;2.53;;
8819;SDS011;4446;50.876;4.736;2023-03-14T09:14:38;6.00;;;2.97;;
8819;SDS011;4446;50.876;4.736;2023-03-14T09:17:05;6.03;;;3.10;;
8819;SDS011;4446;50.876;4.736;2023-03-14T09:19:32;4.82;;;3.47;;
8819;SDS011;4446;50.876;4.736;2023-03-14T09:22:01;6.13;;;4.72;;
8819;SDS011;4446;50.876;4.736;2023-03-14T09:24:28;6.43;;;4.10;;
8819;SDS011;4446;50.876;4.736;2023-03-14T09:26:55;8.98;;;4.25;;
8819;SDS011;4446;50.876;4.736;2023-03-14T09:29:23;6.25;;;4.50;;
8819;SDS011;4446;50.876;4.736;2023-03-14T09:31:50;5.03;;;4.53;;
8819;SDS011;4446;50.876;4.736;2023-03-14T09:34:17;4.90;;;3.20;;
8819;SDS011;4446;50.876;4.736;2023-03-14T09:36:44;4.93;;;3.10;;
8819;SDS011;4446;50.876;4.736;2023-03-14T09:39:12;4.47;;;3.00;;
8819;SDS011;4446;50.876;4.736;2023-03-14T09:41:41;3.45;;;2.58;;
8819;SDS011;4446;50.876;4.736;2023-03-14T09:44:11;3.20;;;2.50;;
8819;SDS011;4446;50.876;4.736;2023-03-14T09:46:42;4.30;;;2.80;;
8819;SDS011;4446;50.876;4.736;2023-03-14T09:49:15;3.28;;;2.80;;
8819;SDS011;4446;50.876;4.736;2023-03-14T09:51:46;4.93;;;3.00;;
8819;SDS011;4446;50.876;4.736;2023-03-14T09:54:21;8.20;;;3.35;;
8819;SDS011;4446;50.876;4.736;2023-03-14T09:56:57;3.97;;;3.30;;
8819;SDS011;4446;50.876;4.736;2023-03-14T09:59:23;6.57;;;3.35;;
8819;SDS011;4446;50.876;4.736;2023-03-14T10:01:52;4.88;;;3.50;;
8819;SDS011;4446;50.876;4.736;2023-03-14T10:04:20;5.20;;;3.30;;
8819;SDS011;4446;50.876;4.736;2023-03-14T10:06:49;6.18;;;3.28;;
8819;SDS011;4446;50.876;4.736;2023-03-14T10:09:17;7.40;;;3.30;;
8819;SDS011;4446;50.876;4.736;2023-03-14T10:11:55;5.88;;;3.28;;
8819;SDS011;4446;50.876;4.736;2023-03-14T10:14:29;6.53;;;3.75;;
8819;SDS011;4446;50.876;4.736;2023-03-14T10:17:04;6.57;;;4.05;;
8819;SDS011;4446;50.876;4.736;2023-03-14T10:19:34;6.72;;;3.70;;
8819;SDS011;4446;50.876;4.736;2023-03-14T10:22:02;8.70;;;3.50;;
8819;SDS011;4446;50.876;4.736;2023-03-14T10:24:32;6.22;;;4.03;;
8819;SDS011;4446;50.876;4.736;2023-03-14T10:27:02;6.72;;;4.00;;
8819;SDS011;4446;50.876;4.736;2023-03-14T10:29:30;8.68;;;4.05;;
8819;SDS011;4446;50.876;4.736;2023-03-14T10:31:58;7.82;;;3.92;;
8819;SDS011;4446;50.876;4.736;2023-03-14T10:34:28;8.82;;;3.42;;
8819;SDS011;4446;50.876;4.736;2023-03-14T10:36:57;5.18;;;3.35;;
8819;SDS011;4446;50.876;4.736;2023-03-14T10:39:26;6.30;;;3.83;;
8819;SDS011;4446;50.876;4.736;2023-03-14T10:42:03;4.53;;;3.10;;
8819;SDS011;4446;50.876;4.736;2023-03-14T10:44:31;6.88;;;2.70;;
8819;SDS011;4446;50.876;4.736;2023-03-14T10:47:00;7.75;;;2.78;;
8819;SDS011;4446;50.876;4.736;2023-03-14T10:49:29;3.97;;;2.08;;
8819;SDS011;4446;50.876;4.736;2023-03-14T10:52:00;2.30;;;2.05;;
8819;SDS011;4446;50.876;4.736;2023-03-14T10:54:36;2.45;;;2.20;;
8819;SDS011;4446;50.876;4.736;2023-03-14T10:57:04;4.85;;;2.15;;
8819;SDS011;4446;50.876;4.736;2023-03-14T10:59:33;2.95;;;1.88;;
8819;SDS011;4446;50.876;4.736;2023-03-14T11:02:03;3.05;;;2.55;;
8819;SDS011;4446;50.876;4.736;2023-03-14T11:04:47;2.33;;;1.90;;
8819;SDS011;4446;50.876;4.736;2023-03-14T11:07:30;2.63;;;1.73;;
8819;SDS011;4446;50.876;4.736;2023-03-14T11:10:02;3.00;;;1.60;;
8819;SDS011;4446;50.876;4.736;2023-03-14T11:12:41;3.00;;;1.70;;
8819;SDS011;4446;50.876;4.736;2023-03-14T11:15:15;2.88;;;1.60;;
8819;SDS011;4446;50.876;4.736;2023-03-14T11:17:47;1.73;;;1.52;;
8819;SDS011;4446;50.876;4.736;2023-03-14T11:20:31;3.05;;;1.90;;
8819;SDS011;4446;50.876;4.736;2023-03-14T11:23:08;2.45;;;1.80;;
8819;SDS011;4446;50.876;4.736;2023-03-14T11:25:42;1.70;;;1.60;;
8819;SDS011;4446;50.876;4.736;2023-03-14T11:28:17;1.65;;;1.55;;
8819;SDS011;4446;50.876;4.736;2023-03-14T11:30:50;1.80;;;1.52;;
8819;SDS011;4446;50.876;4.736;2023-03-14T11:33:21;2.63;;;1.52;;
8819;SDS011;4446;50.876;4.736;2023-03-14T11:35:53;1.80;;;1.70;;
8819;SDS011;4446;50.876;4.736;2023-03-14T11:38:29;3.05;;;1.85;;
8819;SDS011;4446;50.876;4.736;2023-03-14T11:40:58;2.25;;;1.70;;
8819;SDS011;4446;50.876;4.736;2023-03-14T11:43:28;2.15;;;1.90;;
8819;SDS011;4446;50.876;4.736;2023-03-14T11:45:58;2.10;;;2.00;;
8819;SDS011;4446;50.876;4.736;2023-03-14T11:48:34;1.83;;;1.73;;
8819;SDS011;4446;50.876;4.736;2023-03-14T11:51:07;2.75;;;1.90;;
8819;SDS011;4446;50.876;4.736;2023-03-14T11:53:40;4.13;;;1.77;;
8819;SDS011;4446;50.876;4.736;2023-03-14T11:56:16;3.05;;;1.83;;
8819;SDS011;4446;50.876;4.736;2023-03-14T11:58:51;2.13;;;1.70;;
8819;SDS011;4446;50.876;4.736;2023-03-14T12:01:24;1.73;;;1.40;;
8819;SDS011;4446;50.876;4.736;2023-03-14T12:03:58;1.75;;;1.50;;
8819;SDS011;4446;50.876;4.736;2023-03-14T12:06:34;2.05;;;1.38;;
8819;SDS011;4446;50.876;4.736;2023-03-14T12:09:10;1.60;;;1.50;;
8819;SDS011;4446;50.876;4.736;2023-03-14T12:11:39;1.60;;;1.50;;
8819;SDS011;4446;50.876;4.736;2023-03-14T12:14:18;3.33;;;1.70;;
8819;SDS011;4446;50.876;4.736;2023-03-14T12:16:48;1.67;;;1.40;;
8819;SDS011;4446;50.876;4.736;2023-03-14T12:19:26;1.65;;;1.35;;
8819;SDS011;4446;50.876;4.736;2023-03-14T12:22:16;1.88;;;1.33;;
8819;SDS011;4446;50.876;4.736;2023-03-14T12:24:59;2.85;;;1.70;;
8819;SDS011;4446;50.876;4.736;2023-03-14T12:30:40;1.55;;;1.38;;
8819;SDS011;4446;50.876;4.736;2023-03-14T12:33:11;2.03;;;1.35;;
8819;SDS011;4446;50.876;4.736;2023-03-14T12:36:03;1.42;;;1.30;;
8819;SDS011;4446;50.876;4.736;2023-03-14T12:41:35;2.65;;;1.23;;
8819;SDS011;4446;50.876;4.736;2023-03-14T12:50:14;1.70;;;1.60;;
8819;SDS011;4446;50.876;4.736;2023-03-14T12:52:49;3.58;;;1.88;;
8819;SDS011;4446;50.876;4.736;2023-03-14T12:55:41;2.30;;;1.70;;
8819;SDS011;4446;50.876;4.736;2023-03-14T12:58:14;4.20;;;1.85;;
8819;SDS011;4446;50.876;4.736;2023-03-14T13:00:49;5.85;;;2.30;;
8819;SDS011;4446;50.876;4.736;2023-03-14T13:03:22;7.40;;;2.45;;
8819;SDS011;4446;50.876;4.736;2023-03-14T13:05:54;8.27;;;2.42;;
8819;SDS011;4446;50.876;4.736;2023-03-14T13:08:34;9.30;;;2.33;;
8819;SDS011;4446;50.876;4.736;2023-03-14T13:11:04;7.78;;;2.30;;
8819;SDS011;4446;50.876;4.736;2023-03-14T13:13:34;2.90;;;1.85;;
8819;SDS011;4446;50.876;4.736;2023-03-14T13:16:03;7.97;;;2.30;;
8819;SDS011;4446;50.876;4.736;2023-03-14T13:18:33;4.55;;;1.92;;
8819;SDS011;4446;50.876;4.736;2023-03-14T13:21:03;3.58;;;2.10;;
8819;SDS011;4446;50.876;4.736;2023-03-14T13:23:36;5.43;;;2.30;;
8819;SDS011;4446;50.876;4.736;2023-03-14T13:26:05;3.65;;;2.00;;
8819;SDS011;4446;50.876;4.736;2023-03-14T13:28:37;3.92;;;2.53;;
8819;SDS011;4446;50.876;4.736;2023-03-14T13:31:04;4.65;;;2.20;;
8819;SDS011;4446;50.876;4.736;2023-03-14T13:33:32;4.22;;;2.03;;
8819;SDS011;4446;50.876;4.736;2023-03-14T13:36:00;3.85;;;2.60;;
8819;SDS011;4446;50.876;4.736;2023-03-14T13:38:30;5.43;;;2.47;;
8819;SDS011;4446;50.876;4.736;2023-03-14T13:40:59;4.35;;;2.78;;
8819;SDS011;4446;50.876;4.736;2023-03-14T13:43:27;3.30;;;1.80;;
8819;SDS011;4446;50.876;4.736;2023-03-14T13:46:00;2.47;;;2.03;;
8819;SDS011;4446;50.876;4.736;2023-03-14T13:48:30;4.53;;;1.90;;
8819;SDS011;4446;50.876;4.736;2023-03-14T13:51:01;6.60;;;2.30;;
8819;SDS011;4446;50.876;4.736;2023-03-14T13:53:33;7.57;;;2.35;;
8819;SDS011;4446;50.876;4.736;2023-03-14T13:56:09;8.73;;;2.17;;
8819;SDS011;4446;50.876;4.736;2023-03-14T13:58:38;6.38;;;2.50;;
8819;SDS011;4446;50.876;4.736;2023-03-14T14:01:06;5.75;;;1.98;;
8819;SDS011;4446;50.876;4.736;2023-03-14T14:03:39;8.07;;;2.22;;
8819;SDS011;4446;50.876;4.736;2023-03-14T14:06:08;6.97;;;2.60;;
8819;SDS011;4446;50.876;4.736;2023-03-14T14:08:45;7.68;;;2.00;;
8819;SDS011;4446;50.876;4.736;2023-03-14T14:11:14;4.95;;;1.90;;
8819;SDS011;4446;50.876;4.736;2023-03-14T14:13:47;9.57;;;2.53;;
8819;SDS011;4446;50.876;4.736;2023-03-14T14:16:15;6.13;;;2.35;;
8819;SDS011;4446;50.876;4.736;2023-03-14T14:18:45;6.80;;;2.28;;
8819;SDS011;4446;50.876;4.736;2023-03-14T14:21:12;10.93;;;2.35;;
8819;SDS011;4446;50.876;4.736;2023-03-14T14:23:40;6.75;;;2.53;;
8819;SDS011;4446;50.876;4.736;2023-03-14T14:26:12;8.25;;;2.28;;
8819;SDS011;4446;50.876;4.736;2023-03-14T14:28:42;6.28;;;2.15;;
8819;SDS011;4446;50.876;4.736;2023-03-14T14:31:18;6.25;;;2.17;;
8819;SDS011;4446;50.876;4.736;2023-03-14T14:33:53;8.65;;;2.80;;
8819;SDS011;4446;50.876;4.736;2023-03-14T14:36:22;9.55;;;2.35;;
8819;SDS011;4446;50.876;4.736;2023-03-14T14:38:56;8.68;;;2.45;;
8819;SDS011;4446;50.876;4.736;2023-03-14T14:41:30;10.70;;;2.60;;
8819;SDS011;4446;50.876;4.736;2023-03-14T14:43:59;8.02;;;2.70;;
8819;SDS011;4446;50.876;4.736;2023-03-14T14:46:29;8.77;;;2.85;;
8819;SDS011;4446;50.876;4.736;2023-03-14T14:49:02;10.30;;;2.95;;
8819;SDS011;4446;50.876;4.736;2023-03-14T14:51:32;8.15;;;2.50;;
8819;SDS011;4446;50.876;4.736;2023-03-14T14:54:10;12.30;;;2.90;;
8819;SDS011;4446;50.876;4.736;2023-03-14T14:56:40;15.48;;;3.30;;
8819;SDS011;4446;50.876;4.736;2023-03-14T14:59:23;11.85;;;3.35;;
8819;SDS011;4446;50.876;4.736;2023-03-14T15:01:56;9.70;;;3.28;;
8819;SDS011;4446;50.876;4.736;2023-03-14T15:04:24;8.93;;;2.45;;
8819;SDS011;4446;50.876;4.736;2023-03-14T15:06:51;11.98;;;2.30;;
8819;SDS011;4446;50.876;4.736;2023-03-14T15:09:19;7.03;;;2.00;;
8819;SDS011;4446;50.876;4.736;2023-03-14T15:11:47;7.85;;;1.83;;
8819;SDS011;4446;50.876;4.736;2023-03-14T15:14:15;3.75;;;1.52;;
8819;SDS011;4446;50.876;4.736;2023-03-14T15:16:42;3.95;;;1.63;;
8819;SDS011;4446;50.876;4.736;2023-03-14T15:19:10;8.18;;;1.75;;
8819;SDS011;4446;50.876;4.736;2023-03-14T15:21:46;5.97;;;1.75;;
8819;SDS011;4446;50.876;4.736;2023-03-14T15:24:13;5.82;;;1.90;;
8819;SDS011;4446;50.876;4.736;2023-03-14T15:26:40;6.15;;;1.38;;
8819;SDS011;4446;50.876;4.736;2023-03-14T15:29:11;4.97;;;1.45;;
8819;SDS011;4446;50.876;4.736;2023-03-14T15:31:39;5.75;;;1.77;;
8819;SDS011;4446;50.876;4.736;2023-03-14T15:34:08;2.72;;;1.48;;
8819;SDS011;4446;50.876;4.736;2023-03-14T15:36:35;4.25;;;1.55;;
8819;SDS011;4446;50.876;4.736;2023-03-14T15:39:04;4.28;;;1.48;;